• Join FlightAware (Why Join?)
  • Login
  • US Flag 
07:34PM EST


 

Airport Tracker/Info


-or-


 

Live Flight TrackerFlight Track Log ✈ CES5879 ✈ 13-Jun-2013 ✈ ZBAA / PEK - ZPJH / JHG

Flight Track Log - Related Links

Times and Time Zones

All times are in EDT time to prevent confusion due to time zone crossing. See the CES5879 flight status page for this flight to view local times or setup timezone preferences in your user account.

Time Position Orientation Groundspeed Altitude Reporting Facility
EDT Latitude Longitude Course Direction KTS MPH feet Rate Location/Type
06:36PM 40.2490 116.4370 326° Northwest 276 318 6,800  Level FlightAware
06:36PM 40.2610 116.4270 328° Northwest 277 319 7,300 2,520 Climbing FlightAware
06:37PM 40.2830 116.3980 315° West 281 323 8,300 2,400 Climbing FlightAware
06:37PM 40.2890 116.3740 288° West 280 322 8,900 2,820 Climbing FlightAware
06:38PM 40.2810 116.2290 266° West 294 338 13,200 3,120 Climbing FlightAware
06:39PM 40.2580 116.1480 250° West 302 348 15,800 3,480 Climbing FlightAware
06:40PM 40.2390 116.0770 251° West 307 353 18,100 2,100 Climbing FlightAware
06:41PM 40.2190 116.0060 250° West 310 357 19,000 480 Climbing FlightAware
06:41PM 40.1980 115.9310 250° West 310 357 19,000  Level FlightAware
06:42PM 40.1820 115.8740 250° West 310 357 19,000  Level FlightAware
06:43PM 40.1670 115.8200 250° West 310 357 19,000  Level FlightAware
06:43PM 40.1470 115.7480 250° West 310 357 19,000  Level FlightAware
06:44PM 40.1320 115.6940 250° West 310 357 19,000  Level FlightAware
06:47PM 39.9124 115.4595 219° Southwest  Level Estimated
06:48PM 39.8251 115.3668 219° Southwest  Level Estimated
06:49PM 39.7376 115.2743 219° Southwest  Level Estimated
06:50PM 39.6501 115.1820 219° Southwest  Level Estimated
06:51PM 39.5625 115.0900 219° Southwest  Level Estimated
06:52PM 39.4749 114.9982 219° Southwest  Level Estimated
06:53PM 39.3871 114.9066 219° Southwest  Level Estimated
06:54PM 39.2993 114.8152 219° Southwest  Level Estimated
06:55PM 39.2114 114.7241 219° Southwest  Level Estimated
06:56PM 39.1235 114.6332 219° Southwest  Level Estimated
06:57PM 39.0355 114.5425 219° Southwest  Level Estimated
06:58PM 38.9474 114.4521 219° Southwest  Level Estimated
06:59PM 38.8592 114.3619 219° Southwest  Level Estimated
07:00PM 38.7710 114.2719 219° Southwest  Level Estimated
07:01PM 38.6827 114.1821 218° Southwest  Level Estimated
07:02PM 38.5943 114.0926 218° Southwest  Level Estimated
07:03PM 38.5059 114.0032 218° Southwest  Level Estimated
07:04PM 38.4174 113.9141 218° Southwest  Level Estimated
07:05PM 38.3288 113.8252 218° Southwest  Level Estimated
07:06PM 38.2402 113.7366 218° Southwest  Level Estimated
07:07PM 38.1515 113.6481 218° Southwest  Level Estimated
07:08PM 38.0627 113.5599 218° Southwest  Level Estimated
07:09PM 37.9739 113.4718 218° Southwest  Level Estimated
07:10PM 37.8850 113.3840 218° Southwest  Level Estimated
07:11PM 37.7961 113.2964 218° Southwest  Level Estimated
07:12PM 37.7070 113.2090 218° Southwest  Level Estimated
07:13PM 37.6179 113.1218 218° Southwest  Level Estimated
07:14PM 37.5288 113.0349 218° Southwest  Level Estimated
07:15PM 37.4395 112.9481 218° Southwest  Level Estimated
07:16PM 37.3503 112.8615 218° Southwest  Level Estimated
07:17PM 37.2609 112.7752 218° Southwest  Level Estimated
07:18PM 37.1715 112.6890 218° Southwest  Level Estimated
07:19PM 37.0820 112.6031 217° Southwest  Level Estimated
07:20PM 36.9925 112.5173 217° Southwest  Level Estimated
07:21PM 36.9029 112.4318 217° Southwest  Level Estimated
07:22PM 36.8133 112.3465 217° Southwest  Level Estimated
07:23PM 36.7235 112.2613 217° Southwest  Level Estimated
07:24PM 36.6338 112.1764 217° Southwest  Level Estimated
07:25PM 36.5439 112.0916 217° Southwest  Level Estimated
07:26PM 36.4540 112.0071 217° Southwest  Level Estimated
07:27PM 36.3641 111.9227 217° Southwest  Level Estimated
07:28PM 36.2740 111.8386 217° Southwest  Level Estimated
07:29PM 36.1840 111.7546 217° Southwest  Level Estimated
07:30PM 36.0938 111.6709 217° Southwest  Level Estimated
07:31PM 36.0037 111.5873 217° Southwest  Level Estimated
07:32PM 35.9134 111.5039 217° Southwest  Level Estimated
07:33PM 35.8231 111.4207 217° Southwest  Level Estimated
07:34PM 35.7327 111.3377 217° Southwest  Level Estimated
07:35PM 35.6423 111.2549 217° Southwest  Level Estimated
07:36PM 35.5518 111.1722 217° Southwest  Level Estimated
07:37PM 35.4613 111.0898 217° Southwest  Level Estimated
07:38PM 35.3707 111.0075 217° Southwest  Level Estimated
07:39PM 35.2801 110.9254 216° Southwest  Level Estimated
07:40PM 35.1894 110.8435 216° Southwest  Level Estimated
07:41PM 35.0986 110.7618 216° Southwest  Level Estimated
07:42PM 35.0078 110.6803 216° Southwest  Level Estimated
07:43PM 34.9170 110.5990 216° Southwest  Level Estimated
07:44PM 34.8260 110.5178 216° Southwest  Level Estimated
07:45PM 34.7351 110.4368 216° Southwest  Level Estimated
07:46PM 34.6440 110.3560 216° Southwest  Level Estimated
07:47PM 34.5530 110.2754 216° Southwest  Level Estimated
07:48PM 34.4618 110.1949 216° Southwest  Level Estimated
07:49PM 34.3706 110.1146 216° Southwest  Level Estimated
07:50PM 34.2794 110.0345 216° Southwest  Level Estimated
07:51PM 34.1881 109.9546 216° Southwest  Level Estimated
07:52PM 34.0968 109.8748 216° Southwest  Level Estimated
07:53PM 34.0054 109.7952 216° Southwest  Level Estimated
07:54PM 33.9139 109.7158 216° Southwest  Level Estimated
07:55PM 33.8224 109.6366 216° Southwest  Level Estimated
07:56PM 33.7309 109.5575 216° Southwest  Level Estimated
07:57PM 33.6393 109.4786 216° Southwest  Level Estimated
07:58PM 33.5477 109.3998 216° Southwest  Level Estimated
07:59PM 33.4560 109.3213 216° Southwest  Level Estimated
08:00PM 33.3643 109.2428 216° Southwest  Level Estimated
08:01PM 33.2725 109.1646 215° Southwest  Level Estimated
08:02PM 33.1806 109.0865 215° Southwest  Level Estimated
08:03PM 33.0887 109.0086 215° Southwest  Level Estimated
08:04PM 32.9968 108.9309 215° Southwest  Level Estimated
08:05PM 32.9048 108.8533 215° Southwest  Level Estimated
08:06PM 32.8128 108.7758 215° Southwest  Level Estimated
08:07PM 32.7207 108.6986 215° Southwest  Level Estimated
08:08PM 32.6286 108.6215 215° Southwest  Level Estimated
08:09PM 32.5364 108.5445 215° Southwest  Level Estimated
08:10PM 32.4442 108.4677 215° Southwest  Level Estimated
08:11PM 32.3519 108.3911 215° Southwest  Level Estimated
08:12PM 32.2596 108.3146 215° Southwest  Level Estimated
08:13PM 32.1672 108.2383 215° Southwest  Level Estimated
08:14PM 32.0748 108.1621 215° Southwest  Level Estimated
08:15PM 31.9823 108.0861 215° Southwest  Level Estimated
08:16PM 31.8899 108.0102 215° Southwest  Level Estimated
08:17PM 31.7973 107.9345 215° Southwest  Level Estimated
08:18PM 31.7047 107.8590 215° Southwest  Level Estimated
08:19PM 31.6121 107.7835 215° Southwest  Level Estimated
08:20PM 31.5194 107.7083 215° Southwest  Level Estimated
08:21PM 31.4267 107.6332 215° Southwest  Level Estimated
08:22PM 31.3339 107.5582 215° Southwest  Level Estimated
08:23PM 31.2411 107.4834 215° Southwest  Level Estimated
08:24PM 31.1483 107.4087 215° Southwest  Level Estimated
08:25PM 31.0554 107.3342 215° Southwest  Level Estimated
08:26PM 30.9624 107.2598 214° Southwest  Level Estimated
08:27PM 30.8695 107.1856 214° Southwest  Level Estimated
08:28PM 30.7764 107.1115 214° Southwest  Level Estimated
08:29PM 30.6834 107.0376 214° Southwest  Level Estimated
08:30PM 30.5903 106.9638 214° Southwest  Level Estimated
08:31PM 30.4971 106.8901 214° Southwest  Level Estimated
08:32PM 30.4039 106.8166 214° Southwest  Level Estimated
08:33PM 30.3107 106.7432 214° Southwest  Level Estimated
08:34PM 30.2174 106.6700 214° Southwest  Level Estimated
08:35PM 30.1241 106.5969 214° Southwest  Level Estimated
08:36PM 30.0308 106.5239 214° Southwest  Level Estimated
08:37PM 29.9374 106.4511 214° Southwest  Level Estimated
08:38PM 29.8440 106.3784 214° Southwest  Level Estimated
08:39PM 29.7505 106.3059 214° Southwest  Level Estimated
08:40PM 29.6570 106.2335 214° Southwest  Level Estimated
08:41PM 29.5634 106.1612 214° Southwest  Level Estimated
08:42PM 29.4698 106.0890 214° Southwest  Level Estimated
08:43PM 29.3762 106.0170 214° Southwest  Level Estimated
08:44PM 29.2825 105.9451 214° Southwest  Level Estimated
08:45PM 29.1888 105.8734 214° Southwest  Level Estimated
08:46PM 29.0951 105.8018 214° Southwest  Level Estimated
08:47PM 29.0013 105.7303 214° Southwest  Level Estimated
08:48PM 28.9075 105.6589 214° Southwest  Level Estimated
08:49PM 28.8136 105.5877 214° Southwest  Level Estimated
08:50PM 28.7197 105.5166 214° Southwest  Level Estimated
08:51PM 28.6258 105.4456 214° Southwest  Level Estimated
08:52PM 28.5318 105.3748 214° Southwest  Level Estimated
08:53PM 28.4378 105.3040 213° Southwest  Level Estimated
08:54PM 28.3438 105.2334 213° Southwest  Level Estimated
08:55PM 28.2497 105.1630 213° Southwest  Level Estimated
08:56PM 28.1556 105.0926 213° Southwest  Level Estimated
08:57PM 28.0614 105.0224 213° Southwest  Level Estimated
08:58PM 27.9673 104.9523 213° Southwest  Level Estimated
08:59PM 27.8730 104.8823 213° Southwest  Level Estimated
09:00PM 27.7788 104.8125 213° Southwest  Level Estimated
09:01PM 27.6845 104.7427 213° Southwest  Level Estimated
09:02PM 27.5902 104.6731 213° Southwest  Level Estimated
09:03PM 27.4958 104.6036 213° Southwest  Level Estimated
09:04PM 27.4014 104.5342 213° Southwest  Level Estimated
09:05PM 27.3070 104.4650 213° Southwest  Level Estimated
09:06PM 27.2125 104.3958 213° Southwest  Level Estimated
09:07PM 27.1180 104.3268 213° Southwest  Level Estimated
09:08PM 27.0235 104.2579 213° Southwest  Level Estimated
09:09PM 26.9289 104.1891 213° Southwest  Level Estimated
09:10PM 26.8343 104.1204 213° Southwest  Level Estimated
09:11PM 26.7397 104.0519 213° Southwest  Level Estimated
09:12PM 26.6450 103.9834 213° Southwest  Level Estimated
09:13PM 26.5503 103.9151 213° Southwest  Level Estimated
09:14PM 26.4556 103.8469 213° Southwest  Level Estimated
09:15PM 26.3608 103.7788 213° Southwest  Level Estimated
09:16PM 26.2661 103.7108 213° Southwest  Level Estimated
09:17PM 26.1712 103.6429 213° Southwest  Level Estimated
09:18PM 26.0764 103.5751 213° Southwest  Level Estimated
09:19PM 25.9815 103.5074 213° Southwest  Level Estimated
09:20PM 25.8866 103.4399 213° Southwest  Level Estimated
09:21PM 25.7916 103.3724 213° Southwest  Level Estimated
09:22PM 25.6966 103.3051 213° Southwest  Level Estimated
09:23PM 25.6016 103.2379 213° Southwest  Level Estimated
09:24PM 25.5066 103.1707 213° Southwest  Level Estimated
09:25PM 25.4115 103.1037 212° Southwest  Level Estimated
09:26PM 25.3164 103.0368 212° Southwest  Level Estimated
09:27PM 25.2213 102.9700 212° Southwest  Level Estimated
09:28PM 25.1261 102.9033 212° Southwest  Level Estimated
09:29PM 25.0309 102.8367 212° Southwest  Level Estimated
09:30PM 24.9357 102.7702 212° Southwest  Level Estimated
09:31PM 24.8404 102.7038 212° Southwest  Level Estimated
09:32PM 24.7451 102.6375 212° Southwest  Level Estimated
09:33PM 24.6498 102.5713 212° Southwest  Level Estimated
09:34PM 24.5545 102.5052 212° Southwest  Level Estimated
09:35PM 24.4591 102.4392 212° Southwest  Level Estimated
09:36PM 24.3637 102.3734 212° Southwest  Level Estimated
09:37PM 24.2683 102.3076 212° Southwest  Level Estimated
09:38PM 24.1728 102.2419 212° Southwest  Level Estimated
09:39PM 24.0774 102.1763 212° Southwest  Level Estimated
09:40PM 23.9818 102.1108 212° Southwest  Level Estimated
09:41PM 23.8863 102.0454 212° Southwest  Level Estimated
09:42PM 23.7907 101.9801 212° Southwest  Level Estimated
09:43PM 23.6952 101.9149 212° Southwest  Level Estimated
09:44PM 23.5995 101.8498 212° Southwest  Level Estimated
09:45PM 23.5039 101.7848 212° Southwest  Level Estimated
09:46PM 23.4082 101.7198 212° Southwest  Level Estimated
09:47PM 23.3125 101.6550 212° Southwest  Level Estimated
09:48PM 23.2168 101.5903 212° Southwest  Level Estimated
09:49PM 23.1210 101.5256 212° Southwest  Level Estimated
09:50PM 23.0252 101.4611 212° Southwest  Level Estimated
09:51PM 22.9294 101.3966 212° Southwest  Level Estimated
09:52PM 22.8336 101.3323 212° Southwest  Level Estimated
09:53PM 22.7377 101.2680 212° Southwest  Level Estimated
09:54PM 22.6418 101.2038 212° Southwest  Level Estimated
09:55PM 22.5459 101.1397 212° Southwest  Level Estimated
09:56PM 22.4500 101.0757 212° Southwest  Level Estimated
09:57PM 22.3540 101.0118 212° Southwest  Level Estimated
09:58PM 22.2580 100.9479 212° Southwest  Level Estimated
09:59PM 22.1620 100.8842 212° Southwest  Level Estimated
10:00PM 22.0660 100.8205 212° Southwest  Level Estimated
10:01PM 21.9739 100.7596 212° Southwest  Level Estimated
10:02PM 21.9739 100.7596 13° North  Level Estimated
10:03PM 21.9739 100.7596 13° North  Level Estimated
10:04PM 21.9739 100.7596 13° North  Level Estimated
10:05PM 21.9739 100.7596 13° North  Level Estimated
10:06PM 21.9739 100.7596 13° North  Level Estimated
10:07PM 21.9739 100.7596 13° North  Level Estimated
10:08PM 21.9739 100.7596 13° North  Level Estimated
10:09PM 21.9739 100.7596 13° North  Level Estimated